sensor_id;sensor_type;location;lat;lon;timestamp;P1;durP1;ratioP1;P2;durP2;ratioP2
47715;SDS011;33476;50.984;3.538;2023-02-28T00:00:47;6.35;;;2.45;;
47715;SDS011;33476;50.984;3.538;2023-02-28T00:03:13;7.30;;;2.22;;
47715;SDS011;33476;50.984;3.538;2023-02-28T00:05:38;3.25;;;1.85;;
47715;SDS011;33476;50.984;3.538;2023-02-28T00:08:04;3.78;;;2.08;;
47715;SDS011;33476;50.984;3.538;2023-02-28T00:10:30;5.80;;;1.80;;
47715;SDS011;33476;50.984;3.538;2023-02-28T00:12:59;5.68;;;2.20;;
47715;SDS011;33476;50.984;3.538;2023-02-28T00:15:27;4.40;;;2.40;;
47715;SDS011;33476;50.984;3.538;2023-02-28T00:17:53;4.82;;;2.05;;
47715;SDS011;33476;50.984;3.538;2023-02-28T00:20:18;8.80;;;2.10;;
47715;SDS011;33476;50.984;3.538;2023-02-28T00:22:45;5.88;;;2.20;;
47715;SDS011;33476;50.984;3.538;2023-02-28T00:25:13;7.70;;;2.20;;
47715;SDS011;33476;50.984;3.538;2023-02-28T00:27:40;5.22;;;2.38;;
47715;SDS011;33476;50.984;3.538;2023-02-28T00:30:08;5.00;;;1.92;;
47715;SDS011;33476;50.984;3.538;2023-02-28T00:32:38;4.38;;;2.03;;
47715;SDS011;33476;50.984;3.538;2023-02-28T00:35:04;3.35;;;1.98;;
47715;SDS011;33476;50.984;3.538;2023-02-28T00:37:30;4.05;;;1.88;;
47715;SDS011;33476;50.984;3.538;2023-02-28T00:39:55;2.47;;;1.83;;
47715;SDS011;33476;50.984;3.538;2023-02-28T00:42:21;4.43;;;2.05;;
47715;SDS011;33476;50.984;3.538;2023-02-28T00:44:46;2.88;;;2.15;;
47715;SDS011;33476;50.984;3.538;2023-02-28T00:47:13;4.45;;;2.00;;
47715;SDS011;33476;50.984;3.538;2023-02-28T00:49:39;4.75;;;1.88;;
47715;SDS011;33476;50.984;3.538;2023-02-28T00:52:04;4.93;;;2.03;;
47715;SDS011;33476;50.984;3.538;2023-02-28T00:54:29;4.22;;;2.00;;
47715;SDS011;33476;50.984;3.538;2023-02-28T00:56:55;6.35;;;2.30;;
47715;SDS011;33476;50.984;3.538;2023-02-28T00:59:20;5.68;;;2.13;;
47715;SDS011;33476;50.984;3.538;2023-02-28T01:01:46;4.13;;;2.33;;
47715;SDS011;33476;50.984;3.538;2023-02-28T01:04:12;3.05;;;1.83;;
47715;SDS011;33476;50.984;3.538;2023-02-28T01:06:38;5.47;;;2.40;;
47715;SDS011;33476;50.984;3.538;2023-02-28T01:09:04;5.03;;;2.20;;
47715;SDS011;33476;50.984;3.538;2023-02-28T01:11:31;4.97;;;2.00;;
47715;SDS011;33476;50.984;3.538;2023-02-28T01:13:57;3.67;;;2.08;;
47715;SDS011;33476;50.984;3.538;2023-02-28T01:16:23;3.28;;;1.98;;
47715;SDS011;33476;50.984;3.538;2023-02-28T01:18:49;5.03;;;2.30;;
47715;SDS011;33476;50.984;3.538;2023-02-28T01:21:15;5.20;;;2.25;;
47715;SDS011;33476;50.984;3.538;2023-02-28T01:23:43;7.72;;;2.20;;
47715;SDS011;33476;50.984;3.538;2023-02-28T01:26:19;4.47;;;2.65;;
47715;SDS011;33476;50.984;3.538;2023-02-28T01:28:46;3.83;;;2.35;;
47715;SDS011;33476;50.984;3.538;2023-02-28T01:31:12;3.83;;;2.17;;
47715;SDS011;33476;50.984;3.538;2023-02-28T01:33:37;4.03;;;2.50;;
47715;SDS011;33476;50.984;3.538;2023-02-28T01:36:07;2.40;;;2.00;;
47715;SDS011;33476;50.984;3.538;2023-02-28T01:38:36;4.10;;;2.13;;
47715;SDS011;33476;50.984;3.538;2023-02-28T01:41:02;4.90;;;2.90;;
47715;SDS011;33476;50.984;3.538;2023-02-28T01:43:29;3.15;;;2.20;;
47715;SDS011;33476;50.984;3.538;2023-02-28T01:45:56;4.45;;;2.10;;
47715;SDS011;33476;50.984;3.538;2023-02-28T01:48:24;4.65;;;2.63;;
47715;SDS011;33476;50.984;3.538;2023-02-28T01:50:52;9.60;;;2.55;;
47715;SDS011;33476;50.984;3.538;2023-02-28T01:53:21;4.47;;;2.33;;
47715;SDS011;33476;50.984;3.538;2023-02-28T01:55:51;3.83;;;2.13;;
47715;SDS011;33476;50.984;3.538;2023-02-28T01:58:18;4.97;;;2.60;;
47715;SDS011;33476;50.984;3.538;2023-02-28T02:00:44;4.18;;;2.50;;
47715;SDS011;33476;50.984;3.538;2023-02-28T02:03:11;8.27;;;2.33;;
47715;SDS011;33476;50.984;3.538;2023-02-28T02:05:39;5.28;;;2.83;;
47715;SDS011;33476;50.984;3.538;2023-02-28T02:08:12;5.90;;;2.60;;
47715;SDS011;33476;50.984;3.538;2023-02-28T02:10:42;3.58;;;2.25;;
47715;SDS011;33476;50.984;3.538;2023-02-28T02:13:14;6.38;;;2.40;;
47715;SDS011;33476;50.984;3.538;2023-02-28T02:26:48;4.82;;;2.55;;
47715;SDS011;33476;50.984;3.538;2023-02-28T02:37:50;5.30;;;2.75;;
47715;SDS011;33476;50.984;3.538;2023-02-28T02:40:27;6.97;;;2.85;;
47715;SDS011;33476;50.984;3.538;2023-02-28T02:43:01;4.78;;;3.30;;
47715;SDS011;33476;50.984;3.538;2023-02-28T02:45:32;6.40;;;2.75;;
47715;SDS011;33476;50.984;3.538;2023-02-28T02:48:03;5.35;;;3.00;;
47715;SDS011;33476;50.984;3.538;2023-02-28T02:50:37;4.07;;;2.55;;
47715;SDS011;33476;50.984;3.538;2023-02-28T02:53:05;4.65;;;3.13;;
47715;SDS011;33476;50.984;3.538;2023-02-28T02:55:34;5.15;;;2.75;;
47715;SDS011;33476;50.984;3.538;2023-02-28T02:58:05;5.82;;;3.17;;
47715;SDS011;33476;50.984;3.538;2023-02-28T03:00:41;9.50;;;2.92;;
47715;SDS011;33476;50.984;3.538;2023-02-28T03:03:11;4.68;;;2.90;;
47715;SDS011;33476;50.984;3.538;2023-02-28T03:05:47;3.20;;;2.50;;
47715;SDS011;33476;50.984;3.538;2023-02-28T03:08:14;7.60;;;3.20;;
47715;SDS011;33476;50.984;3.538;2023-02-28T03:10:40;5.60;;;2.90;;
47715;SDS011;33476;50.984;3.538;2023-02-28T03:16:07;5.03;;;3.20;;
47715;SDS011;33476;50.984;3.538;2023-02-28T03:21:51;5.38;;;2.83;;
47715;SDS011;33476;50.984;3.538;2023-02-28T03:27:20;9.10;;;3.22;;
47715;SDS011;33476;50.984;3.538;2023-02-28T03:29:47;4.97;;;3.10;;
47715;SDS011;33476;50.984;3.538;2023-02-28T03:34:59;6.43;;;2.92;;
47715;SDS011;33476;50.984;3.538;2023-02-28T03:37:31;14.23;;;3.00;;
47715;SDS011;33476;50.984;3.538;2023-02-28T03:40:11;5.60;;;3.08;;
47715;SDS011;33476;50.984;3.538;2023-02-28T03:42:40;6.18;;;3.15;;
47715;SDS011;33476;50.984;3.538;2023-02-28T03:45:09;8.05;;;3.33;;
47715;SDS011;33476;50.984;3.538;2023-02-28T03:47:44;6.35;;;3.00;;
47715;SDS011;33476;50.984;3.538;2023-02-28T03:50:16;5.00;;;2.95;;
47715;SDS011;33476;50.984;3.538;2023-02-28T03:52:50;8.18;;;3.65;;
47715;SDS011;33476;50.984;3.538;2023-02-28T03:55:26;7.47;;;3.35;;
47715;SDS011;33476;50.984;3.538;2023-02-28T03:58:33;6.82;;;3.40;;
47715;SDS011;33476;50.984;3.538;2023-02-28T04:01:06;4.13;;;3.20;;
47715;SDS011;33476;50.984;3.538;2023-02-28T04:03:40;5.97;;;3.30;;
47715;SDS011;33476;50.984;3.538;2023-02-28T04:06:06;7.45;;;3.28;;
47715;SDS011;33476;50.984;3.538;2023-02-28T04:08:33;8.63;;;3.85;;
47715;SDS011;33476;50.984;3.538;2023-02-28T04:11:04;4.20;;;2.85;;
47715;SDS011;33476;50.984;3.538;2023-02-28T04:13:36;3.92;;;2.70;;
47715;SDS011;33476;50.984;3.538;2023-02-28T04:16:02;6.63;;;3.13;;
47715;SDS011;33476;50.984;3.538;2023-02-28T04:18:36;8.90;;;3.70;;
47715;SDS011;33476;50.984;3.538;2023-02-28T04:21:03;5.65;;;3.45;;
47715;SDS011;33476;50.984;3.538;2023-02-28T04:23:28;5.70;;;3.33;;
47715;SDS011;33476;50.984;3.538;2023-02-28T04:25:55;5.85;;;2.78;;
47715;SDS011;33476;50.984;3.538;2023-02-28T04:28:20;6.40;;;3.47;;
47715;SDS011;33476;50.984;3.538;2023-02-28T04:30:46;6.55;;;3.03;;
47715;SDS011;33476;50.984;3.538;2023-02-28T04:33:11;8.30;;;3.75;;
47715;SDS011;33476;50.984;3.538;2023-02-28T04:35:36;5.35;;;2.97;;
47715;SDS011;33476;50.984;3.538;2023-02-28T04:38:01;5.63;;;3.08;;
47715;SDS011;33476;50.984;3.538;2023-02-28T04:40:27;6.80;;;3.10;;
47715;SDS011;33476;50.984;3.538;2023-02-28T04:42:52;9.65;;;3.45;;
47715;SDS011;33476;50.984;3.538;2023-02-28T04:45:18;5.50;;;3.38;;
47715;SDS011;33476;50.984;3.538;2023-02-28T04:47:43;7.13;;;3.22;;
47715;SDS011;33476;50.984;3.538;2023-02-28T04:50:08;5.43;;;3.35;;
47715;SDS011;33476;50.984;3.538;2023-02-28T04:52:34;5.70;;;3.17;;
47715;SDS011;33476;50.984;3.538;2023-02-28T04:54:59;5.40;;;3.38;;
47715;SDS011;33476;50.984;3.538;2023-02-28T04:57:25;7.22;;;2.92;;
47715;SDS011;33476;50.984;3.538;2023-02-28T04:59:50;5.50;;;3.33;;
47715;SDS011;33476;50.984;3.538;2023-02-28T05:02:15;6.03;;;2.80;;
47715;SDS011;33476;50.984;3.538;2023-02-28T05:04:41;5.18;;;2.88;;
47715;SDS011;33476;50.984;3.538;2023-02-28T05:07:06;5.25;;;3.50;;
47715;SDS011;33476;50.984;3.538;2023-02-28T05:09:31;8.98;;;3.53;;
47715;SDS011;33476;50.984;3.538;2023-02-28T05:11:58;5.57;;;3.03;;
47715;SDS011;33476;50.984;3.538;2023-02-28T05:14:23;5.78;;;2.65;;
47715;SDS011;33476;50.984;3.538;2023-02-28T05:16:48;5.57;;;3.22;;
47715;SDS011;33476;50.984;3.538;2023-02-28T05:19:14;6.03;;;2.72;;
47715;SDS011;33476;50.984;3.538;2023-02-28T05:21:40;5.95;;;3.40;;
47715;SDS011;33476;50.984;3.538;2023-02-28T05:24:08;7.10;;;2.78;;
47715;SDS011;33476;50.984;3.538;2023-02-28T05:26:37;5.88;;;2.92;;
47715;SDS011;33476;50.984;3.538;2023-02-28T05:29:04;5.95;;;3.13;;
47715;SDS011;33476;50.984;3.538;2023-02-28T05:31:30;14.30;;;3.70;;
47715;SDS011;33476;50.984;3.538;2023-02-28T05:33:55;4.75;;;3.05;;
47715;SDS011;33476;50.984;3.538;2023-02-28T05:36:20;6.07;;;3.10;;
47715;SDS011;33476;50.984;3.538;2023-02-28T05:38:46;7.50;;;3.42;;
47715;SDS011;33476;50.984;3.538;2023-02-28T05:41:13;5.57;;;2.95;;
47715;SDS011;33476;50.984;3.538;2023-02-28T05:43:39;5.95;;;3.13;;
47715;SDS011;33476;50.984;3.538;2023-02-28T05:46:08;5.10;;;2.70;;
47715;SDS011;33476;50.984;3.538;2023-02-28T05:48:35;9.07;;;3.25;;
47715;SDS011;33476;50.984;3.538;2023-02-28T05:51:02;4.97;;;2.95;;
47715;SDS011;33476;50.984;3.538;2023-02-28T05:53:28;4.95;;;2.95;;
47715;SDS011;33476;50.984;3.538;2023-02-28T05:55:54;6.70;;;2.33;;
47715;SDS011;33476;50.984;3.538;2023-02-28T05:58:20;8.00;;;2.55;;
47715;SDS011;33476;50.984;3.538;2023-02-28T06:00:46;7.57;;;3.45;;
47715;SDS011;33476;50.984;3.538;2023-02-28T06:03:11;7.88;;;3.20;;
47715;SDS011;33476;50.984;3.538;2023-02-28T06:05:37;9.60;;;3.65;;
47715;SDS011;33476;50.984;3.538;2023-02-28T06:08:03;10.30;;;3.40;;
47715;SDS011;33476;50.984;3.538;2023-02-28T06:10:29;6.47;;;3.28;;
47715;SDS011;33476;50.984;3.538;2023-02-28T06:12:54;7.38;;;3.40;;
47715;SDS011;33476;50.984;3.538;2023-02-28T06:15:20;7.03;;;3.10;;
47715;SDS011;33476;50.984;3.538;2023-02-28T06:17:45;9.13;;;3.42;;
47715;SDS011;33476;50.984;3.538;2023-02-28T06:20:12;7.82;;;3.42;;
47715;SDS011;33476;50.984;3.538;2023-02-28T06:22:38;11.85;;;4.55;;
47715;SDS011;33476;50.984;3.538;2023-02-28T06:25:04;10.35;;;5.38;;
47715;SDS011;33476;50.984;3.538;2023-02-28T06:27:31;8.68;;;4.80;;
47715;SDS011;33476;50.984;3.538;2023-02-28T06:29:57;13.50;;;5.43;;
47715;SDS011;33476;50.984;3.538;2023-02-28T06:32:22;10.38;;;5.00;;
47715;SDS011;33476;50.984;3.538;2023-02-28T06:34:48;9.88;;;4.82;;
47715;SDS011;33476;50.984;3.538;2023-02-28T06:37:13;7.90;;;3.97;;
47715;SDS011;33476;50.984;3.538;2023-02-28T06:39:39;8.63;;;3.67;;
47715;SDS011;33476;50.984;3.538;2023-02-28T06:42:04;8.02;;;4.00;;
47715;SDS011;33476;50.984;3.538;2023-02-28T06:44:30;9.05;;;3.72;;
47715;SDS011;33476;50.984;3.538;2023-02-28T06:47:00;7.70;;;3.40;;
47715;SDS011;33476;50.984;3.538;2023-02-28T06:49:29;7.47;;;3.90;;
47715;SDS011;33476;50.984;3.538;2023-02-28T06:51:56;7.55;;;3.75;;
47715;SDS011;33476;50.984;3.538;2023-02-28T06:54:21;10.38;;;3.83;;
47715;SDS011;33476;50.984;3.538;2023-02-28T06:56:47;8.00;;;3.90;;
47715;SDS011;33476;50.984;3.538;2023-02-28T06:59:12;11.05;;;3.83;;
47715;SDS011;33476;50.984;3.538;2023-02-28T07:01:38;14.70;;;4.30;;
47715;SDS011;33476;50.984;3.538;2023-02-28T07:04:04;5.75;;;3.67;;
47715;SDS011;33476;50.984;3.538;2023-02-28T07:06:30;6.70;;;3.42;;
47715;SDS011;33476;50.984;3.538;2023-02-28T07:08:55;7.22;;;3.83;;
47715;SDS011;33476;50.984;3.538;2023-02-28T07:11:22;7.88;;;3.58;;
47715;SDS011;33476;50.984;3.538;2023-02-28T07:13:50;8.48;;;3.95;;
47715;SDS011;33476;50.984;3.538;2023-02-28T07:16:16;11.27;;;4.70;;
47715;SDS011;33476;50.984;3.538;2023-02-28T07:18:41;13.43;;;5.57;;
47715;SDS011;33476;50.984;3.538;2023-02-28T07:21:07;12.15;;;4.72;;
47715;SDS011;33476;50.984;3.538;2023-02-28T07:23:35;6.85;;;3.70;;
47715;SDS011;33476;50.984;3.538;2023-02-28T07:26:02;7.55;;;3.25;;
47715;SDS011;33476;50.984;3.538;2023-02-28T07:28:36;11.77;;;4.13;;
47715;SDS011;33476;50.984;3.538;2023-02-28T07:31:04;10.65;;;4.05;;
47715;SDS011;33476;50.984;3.538;2023-02-28T07:33:30;9.40;;;3.63;;
47715;SDS011;33476;50.984;3.538;2023-02-28T07:36:05;10.77;;;4.35;;
47715;SDS011;33476;50.984;3.538;2023-02-28T07:38:34;8.40;;;3.33;;
47715;SDS011;33476;50.984;3.538;2023-02-28T07:41:00;8.30;;;3.55;;
47715;SDS011;33476;50.984;3.538;2023-02-28T07:43:29;8.73;;;3.97;;
47715;SDS011;33476;50.984;3.538;2023-02-28T07:45:55;6.93;;;2.92;;
47715;SDS011;33476;50.984;3.538;2023-02-28T07:48:20;7.78;;;3.08;;
47715;SDS011;33476;50.984;3.538;2023-02-28T07:50:53;4.95;;;2.40;;
47715;SDS011;33476;50.984;3.538;2023-02-28T07:53:20;5.20;;;2.33;;
47715;SDS011;33476;50.984;3.538;2023-02-28T07:55:48;7.20;;;2.78;;
47715;SDS011;33476;50.984;3.538;2023-02-28T07:58:19;8.55;;;2.05;;
47715;SDS011;33476;50.984;3.538;2023-02-28T08:00:44;6.38;;;2.47;;
47715;SDS011;33476;50.984;3.538;2023-02-28T08:03:13;4.38;;;1.77;;
47715;SDS011;33476;50.984;3.538;2023-02-28T08:05:41;3.50;;;1.73;;
47715;SDS011;33476;50.984;3.538;2023-02-28T08:08:07;3.28;;;1.35;;
47715;SDS011;33476;50.984;3.538;2023-02-28T08:10:32;4.53;;;1.17;;
47715;SDS011;33476;50.984;3.538;2023-02-28T08:12:58;4.10;;;1.55;;
47715;SDS011;33476;50.984;3.538;2023-02-28T08:15:23;9.45;;;1.92;;
47715;SDS011;33476;50.984;3.538;2023-02-28T08:17:49;6.20;;;1.80;;
47715;SDS011;33476;50.984;3.538;2023-02-28T08:20:14;4.85;;;1.65;;
47715;SDS011;33476;50.984;3.538;2023-02-28T08:22:39;5.22;;;1.80;;
47715;SDS011;33476;50.984;3.538;2023-02-28T08:25:05;4.82;;;1.15;;
47715;SDS011;33476;50.984;3.538;2023-02-28T08:27:32;4.10;;;1.77;;
47715;SDS011;33476;50.984;3.538;2023-02-28T08:29:57;6.18;;;1.60;;
47715;SDS011;33476;50.984;3.538;2023-02-28T08:32:22;4.25;;;1.33;;
47715;SDS011;33476;50.984;3.538;2023-02-28T08:34:47;5.20;;;1.55;;
47715;SDS011;33476;50.984;3.538;2023-02-28T08:37:13;6.63;;;1.67;;
47715;SDS011;33476;50.984;3.538;2023-02-28T08:39:38;4.13;;;1.60;;
47715;SDS011;33476;50.984;3.538;2023-02-28T08:42:04;5.00;;;1.17;;
47715;SDS011;33476;50.984;3.538;2023-02-28T08:44:29;4.95;;;1.00;;
47715;SDS011;33476;50.984;3.538;2023-02-28T08:46:55;6.65;;;1.50;;
47715;SDS011;33476;50.984;3.538;2023-02-28T08:49:20;4.18;;;1.13;;
47715;SDS011;33476;50.984;3.538;2023-02-28T08:51:45;2.58;;;1.33;;
47715;SDS011;33476;50.984;3.538;2023-02-28T08:54:11;5.00;;;1.30;;
47715;SDS011;33476;50.984;3.538;2023-02-28T08:56:41;2.97;;;1.35;;
47715;SDS011;33476;50.984;3.538;2023-02-28T08:59:08;3.75;;;1.13;;
47715;SDS011;33476;50.984;3.538;2023-02-28T09:01:34;5.68;;;1.38;;
47715;SDS011;33476;50.984;3.538;2023-02-28T09:04:01;3.25;;;1.23;;
47715;SDS011;33476;50.984;3.538;2023-02-28T09:06:27;6.85;;;1.50;;
47715;SDS011;33476;50.984;3.538;2023-02-28T09:08:53;2.92;;;1.23;;
47715;SDS011;33476;50.984;3.538;2023-02-28T09:11:21;5.00;;;1.25;;
47715;SDS011;33476;50.984;3.538;2023-02-28T09:13:47;3.97;;;1.10;;
47715;SDS011;33476;50.984;3.538;2023-02-28T09:16:13;3.63;;;1.02;;
47715;SDS011;33476;50.984;3.538;2023-02-28T09:18:40;4.85;;;1.50;;
47715;SDS011;33476;50.984;3.538;2023-02-28T09:21:06;4.43;;;1.30;;
47715;SDS011;33476;50.984;3.538;2023-02-28T09:23:33;4.50;;;1.30;;
47715;SDS011;33476;50.984;3.538;2023-02-28T09:25:59;4.40;;;1.00;;
47715;SDS011;33476;50.984;3.538;2023-02-28T09:28:24;4.75;;;1.38;;
47715;SDS011;33476;50.984;3.538;2023-02-28T09:30:50;2.38;;;1.10;;
47715;SDS011;33476;50.984;3.538;2023-02-28T09:33:17;2.30;;;1.15;;
47715;SDS011;33476;50.984;3.538;2023-02-28T09:35:46;4.43;;;1.33;;
47715;SDS011;33476;50.984;3.538;2023-02-28T09:38:11;2.88;;;1.33;;
47715;SDS011;33476;50.984;3.538;2023-02-28T09:40:38;5.10;;;0.90;;
47715;SDS011;33476;50.984;3.538;2023-02-28T09:43:16;3.58;;;1.20;;
47715;SDS011;33476;50.984;3.538;2023-02-28T09:45:48;3.58;;;1.17;;
47715;SDS011;33476;50.984;3.538;2023-02-28T09:48:24;4.47;;;1.25;;
47715;SDS011;33476;50.984;3.538;2023-02-28T09:50:55;2.25;;;0.90;;
47715;SDS011;33476;50.984;3.538;2023-02-28T09:53:31;2.50;;;1.02;;
47715;SDS011;33476;50.984;3.538;2023-02-28T09:56:04;2.75;;;0.98;;
47715;SDS011;33476;50.984;3.538;2023-02-28T09:58:47;2.05;;;0.93;;
47715;SDS011;33476;50.984;3.538;2023-02-28T10:06:41;4.25;;;0.63;;
47715;SDS011;33476;50.984;3.538;2023-02-28T10:09:21;1.88;;;0.82;;
47715;SDS011;33476;50.984;3.538;2023-02-28T10:11:50;2.47;;;0.70;;
47715;SDS011;33476;50.984;3.538;2023-02-28T10:14:18;3.33;;;1.00;;
47715;SDS011;33476;50.984;3.538;2023-02-28T10:24:39;2.00;;;0.93;;
47715;SDS011;33476;50.984;3.538;2023-02-28T10:29:47;1.83;;;0.80;;
47715;SDS011;33476;50.984;3.538;2023-02-28T10:32:18;1.63;;;0.70;;
47715;SDS011;33476;50.984;3.538;2023-02-28T10:37:24;1.63;;;0.60;;
47715;SDS011;33476;50.984;3.538;2023-02-28T10:39:49;3.00;;;0.98;;
47715;SDS011;33476;50.984;3.538;2023-02-28T10:42:25;3.15;;;1.08;;
47715;SDS011;33476;50.984;3.538;2023-02-28T10:50:33;3.17;;;1.00;;
47715;SDS011;33476;50.984;3.538;2023-02-28T11:03:56;6.07;;;0.70;;
47715;SDS011;33476;50.984;3.538;2023-02-28T11:06:23;1.30;;;0.60;;
47715;SDS011;33476;50.984;3.538;2023-02-28T11:08:52;2.50;;;0.50;;
47715;SDS011;33476;50.984;3.538;2023-02-28T11:11:23;5.28;;;0.70;;
47715;SDS011;33476;50.984;3.538;2023-02-28T11:13:52;2.83;;;0.50;;
47715;SDS011;33476;50.984;3.538;2023-02-28T11:16:19;1.85;;;0.30;;
47715;SDS011;33476;50.984;3.538;2023-02-28T11:21:28;1.95;;;0.52;;
47715;SDS011;33476;50.984;3.538;2023-02-28T11:24:01;1.50;;;0.55;;
47715;SDS011;33476;50.984;3.538;2023-02-28T11:29:10;0.98;;;0.52;;
47715;SDS011;33476;50.984;3.538;2023-02-28T11:31:41;1.67;;;0.50;;
47715;SDS011;33476;50.984;3.538;2023-02-28T11:34:23;3.17;;;0.40;;
47715;SDS011;33476;50.984;3.538;2023-02-28T11:36:53;7.85;;;0.65;;
47715;SDS011;33476;50.984;3.538;2023-02-28T11:39:22;1.57;;;0.50;;
47715;SDS011;33476;50.984;3.538;2023-02-28T11:44:29;1.92;;;0.45;;
47715;SDS011;33476;50.984;3.538;2023-02-28T11:47:00;5.15;;;0.73;;
47715;SDS011;33476;50.984;3.538;2023-02-28T11:50:04;3.30;;;1.08;;
47715;SDS011;33476;50.984;3.538;2023-02-28T11:58:33;1.35;;;0.40;;
47715;SDS011;33476;50.984;3.538;2023-02-28T12:01:38;2.10;;;0.40;;
47715;SDS011;33476;50.984;3.538;2023-02-28T12:04:47;1.35;;;0.50;;
47715;SDS011;33476;50.984;3.538;2023-02-28T12:29:12;2.85;;;0.40;;
47715;SDS011;33476;50.984;3.538;2023-02-28T12:32:27;1.50;;;0.35;;
47715;SDS011;33476;50.984;3.538;2023-02-28T12:34:49;1.50;;;0.30;;
47715;SDS011;33476;50.984;3.538;2023-02-28T12:37:29;1.55;;;0.50;;
47715;SDS011;33476;50.984;3.538;2023-02-28T12:40:03;3.05;;;0.55;;
47715;SDS011;33476;50.984;3.538;2023-02-28T12:42:51;2.22;;;0.30;;
47715;SDS011;33476;50.984;3.538;2023-02-28T12:45:24;0.90;;;0.52;;
47715;SDS011;33476;50.984;3.538;2023-02-28T12:47:55;1.95;;;0.50;;
47715;SDS011;33476;50.984;3.538;2023-02-28T12:50:25;0.70;;;0.40;;
47715;SDS011;33476;50.984;3.538;2023-02-28T12:52:59;0.93;;;0.40;;
47715;SDS011;33476;50.984;3.538;2023-02-28T12:55:38;0.68;;;0.30;;
47715;SDS011;33476;50.984;3.538;2023-02-28T13:01:39;1.65;;;0.38;;
47715;SDS011;33476;50.984;3.538;2023-02-28T13:09:12;1.00;;;0.45;;
47715;SDS011;33476;50.984;3.538;2023-02-28T13:11:42;2.05;;;0.35;;
47715;SDS011;33476;50.984;3.538;2023-02-28T13:14:22;0.90;;;0.30;;
47715;SDS011;33476;50.984;3.538;2023-02-28T13:17:01;0.60;;;0.20;;
47715;SDS011;33476;50.984;3.538;2023-02-28T13:19:42;2.25;;;0.40;;
47715;SDS011;33476;50.984;3.538;2023-02-28T13:24:51;1.00;;;0.28;;
47715;SDS011;33476;50.984;3.538;2023-02-28T13:27:31;0.55;;;0.28;;
47715;SDS011;33476;50.984;3.538;2023-02-28T13:29:58;0.60;;;0.20;;
47715;SDS011;33476;50.984;3.538;2023-02-28T13:32:33;1.08;;;0.20;;
47715;SDS011;33476;50.984;3.538;2023-02-28T13:37:36;2.40;;;0.30;;
47715;SDS011;33476;50.984;3.538;2023-02-28T13:42:52;0.70;;;0.35;;
47715;SDS011;33476;50.984;3.538;2023-02-28T13:45:22;1.52;;;0.20;;
47715;SDS011;33476;50.984;3.538;2023-02-28T13:47:53;1.02;;;0.30;;
47715;SDS011;33476;50.984;3.538;2023-02-28T14:01:22;0.57;;;0.20;;
47715;SDS011;33476;50.984;3.538;2023-02-28T14:06:24;0.82;;;0.32;;
47715;SDS011;33476;50.984;3.538;2023-02-28T14:08:59;1.25;;;0.40;;
47715;SDS011;33476;50.984;3.538;2023-02-28T14:11:33;1.45;;;0.20;;
47715;SDS011;33476;50.984;3.538;2023-02-28T14:14:00;3.28;;;0.32;;
47715;SDS011;33476;50.984;3.538;2023-02-28T14:16:35;0.75;;;0.30;;
47715;SDS011;33476;50.984;3.538;2023-02-28T14:19:12;1.30;;;0.30;;
47715;SDS011;33476;50.984;3.538;2023-02-28T14:21:39;2.20;;;0.60;;
47715;SDS011;33476;50.984;3.538;2023-02-28T14:34:35;5.85;;;0.90;;
47715;SDS011;33476;50.984;3.538;2023-02-28T14:37:13;1.75;;;0.50;;
47715;SDS011;33476;50.984;3.538;2023-02-28T14:39:44;1.08;;;0.38;;
47715;SDS011;33476;50.984;3.538;2023-02-28T14:42:27;3.70;;;0.73;;
47715;SDS011;33476;50.984;3.538;2023-02-28T14:44:55;1.00;;;0.50;;
47715;SDS011;33476;50.984;3.538;2023-02-28T14:47:25;1.58;;;0.50;;
47715;SDS011;33476;50.984;3.538;2023-02-28T14:49:55;1.30;;;0.55;;
47715;SDS011;33476;50.984;3.538;2023-02-28T14:52:23;1.73;;;0.40;;
47715;SDS011;33476;50.984;3.538;2023-02-28T14:54:53;1.55;;;0.40;;
47715;SDS011;33476;50.984;3.538;2023-02-28T14:59:57;1.48;;;0.40;;
47715;SDS011;33476;50.984;3.538;2023-02-28T15:02:25;2.05;;;0.60;;
47715;SDS011;33476;50.984;3.538;2023-02-28T15:04:55;8.38;;;0.65;;
47715;SDS011;33476;50.984;3.538;2023-02-28T15:07:22;1.05;;;0.50;;
47715;SDS011;33476;50.984;3.538;2023-02-28T15:13:11;2.63;;;0.63;;
47715;SDS011;33476;50.984;3.538;2023-02-28T15:18:53;2.20;;;0.50;;
47715;SDS011;33476;50.984;3.538;2023-02-28T15:21:25;2.88;;;0.50;;
47715;SDS011;33476;50.984;3.538;2023-02-28T15:23:59;1.38;;;0.60;;
47715;SDS011;33476;50.984;3.538;2023-02-28T15:26:34;1.58;;;0.50;;
47715;SDS011;33476;50.984;3.538;2023-02-28T15:29:07;2.80;;;0.57;;
47715;SDS011;33476;50.984;3.538;2023-02-28T15:32:03;3.33;;;0.70;;
47715;SDS011;33476;50.984;3.538;2023-02-28T15:37:23;4.38;;;0.80;;
47715;SDS011;33476;50.984;3.538;2023-02-28T15:39:50;1.23;;;0.50;;
47715;SDS011;33476;50.984;3.538;2023-02-28T15:42:20;2.72;;;0.60;;
47715;SDS011;33476;50.984;3.538;2023-02-28T15:44:46;2.25;;;0.50;;
47715;SDS011;33476;50.984;3.538;2023-02-28T15:47:19;4.85;;;0.47;;
47715;SDS011;33476;50.984;3.538;2023-02-28T15:52:43;1.77;;;0.90;;
47715;SDS011;33476;50.984;3.538;2023-02-28T15:55:10;2.17;;;1.10;;
47715;SDS011;33476;50.984;3.538;2023-02-28T15:57:44;2.53;;;0.52;;
47715;SDS011;33476;50.984;3.538;2023-02-28T16:00:12;1.75;;;0.60;;
47715;SDS011;33476;50.984;3.538;2023-02-28T16:02:40;2.15;;;0.70;;
47715;SDS011;33476;50.984;3.538;2023-02-28T16:07:38;2.65;;;0.82;;
47715;SDS011;33476;50.984;3.538;2023-02-28T16:10:06;4.03;;;0.85;;
47715;SDS011;33476;50.984;3.538;2023-02-28T16:12:34;5.93;;;0.90;;
47715;SDS011;33476;50.984;3.538;2023-02-28T16:15:03;3.28;;;0.82;;
47715;SDS011;33476;50.984;3.538;2023-02-28T16:17:37;2.38;;;0.93;;
47715;SDS011;33476;50.984;3.538;2023-02-28T16:20:17;1.85;;;0.60;;
47715;SDS011;33476;50.984;3.538;2023-02-28T16:22:45;1.45;;;0.80;;
47715;SDS011;33476;50.984;3.538;2023-02-28T16:25:14;2.50;;;0.80;;
47715;SDS011;33476;50.984;3.538;2023-02-28T16:27:40;2.60;;;0.80;;
47715;SDS011;33476;50.984;3.538;2023-02-28T16:30:07;1.20;;;0.70;;
47715;SDS011;33476;50.984;3.538;2023-02-28T16:32:40;1.20;;;0.50;;
47715;SDS011;33476;50.984;3.538;2023-02-28T16:35:06;3.72;;;0.57;;
47715;SDS011;33476;50.984;3.538;2023-02-28T16:37:35;1.13;;;0.52;;
47715;SDS011;33476;50.984;3.538;2023-02-28T16:40:00;2.75;;;0.70;;
47715;SDS011;33476;50.984;3.538;2023-02-28T16:42:27;3.67;;;0.60;;
47715;SDS011;33476;50.984;3.538;2023-02-28T16:44:54;1.38;;;0.75;;
47715;SDS011;33476;50.984;3.538;2023-02-28T16:47:20;2.78;;;0.80;;
47715;SDS011;33476;50.984;3.538;2023-02-28T16:49:46;1.20;;;0.50;;
47715;SDS011;33476;50.984;3.538;2023-02-28T16:52:12;2.25;;;0.60;;
47715;SDS011;33476;50.984;3.538;2023-02-28T16:54:38;3.50;;;0.73;;
47715;SDS011;33476;50.984;3.538;2023-02-28T16:57:04;4.30;;;1.00;;
47715;SDS011;33476;50.984;3.538;2023-02-28T16:59:31;2.03;;;0.77;;
47715;SDS011;33476;50.984;3.538;2023-02-28T17:01:57;2.25;;;0.68;;
47715;SDS011;33476;50.984;3.538;2023-02-28T17:04:26;1.73;;;0.70;;
47715;SDS011;33476;50.984;3.538;2023-02-28T17:06:52;2.67;;;0.70;;
47715;SDS011;33476;50.984;3.538;2023-02-28T17:09:19;5.78;;;0.70;;
47715;SDS011;33476;50.984;3.538;2023-02-28T17:11:46;4.07;;;1.20;;
47715;SDS011;33476;50.984;3.538;2023-02-28T17:14:12;1.88;;;0.80;;
47715;SDS011;33476;50.984;3.538;2023-02-28T17:16:38;1.45;;;0.95;;
47715;SDS011;33476;50.984;3.538;2023-02-28T17:19:09;1.67;;;0.95;;
47715;SDS011;33476;50.984;3.538;2023-02-28T17:21:38;2.60;;;1.08;;
47715;SDS011;33476;50.984;3.538;2023-02-28T17:24:06;4.13;;;1.25;;
47715;SDS011;33476;50.984;3.538;2023-02-28T17:26:32;2.35;;;0.98;;
47715;SDS011;33476;50.984;3.538;2023-02-28T17:28:57;3.38;;;1.23;;
47715;SDS011;33476;50.984;3.538;2023-02-28T17:31:26;1.90;;;1.08;;
47715;SDS011;33476;50.984;3.538;2023-02-28T17:33:52;7.28;;;1.13;;
47715;SDS011;33476;50.984;3.538;2023-02-28T17:36:23;1.95;;;1.15;;
47715;SDS011;33476;50.984;3.538;2023-02-28T17:38:50;2.83;;;0.90;;